sensor_id;sensor_type;location;lat;lon;timestamp;P1;durP1;ratioP1;P2;durP2;ratioP2
50213;SDS011;36103;54.176;12.070;2022-12-18T00:00:59;15.37;;;10.03;;
50213;SDS011;36103;54.176;12.070;2022-12-18T00:02:05;16.87;;;10.20;;
50213;SDS011;36103;54.176;12.070;2022-12-18T00:03:07;14.03;;;9.73;;
50213;SDS011;36103;54.176;12.070;2022-12-18T00:04:14;16.93;;;9.53;;
50213;SDS011;36103;54.176;12.070;2022-12-18T00:05:18;13.37;;;9.17;;
50213;SDS011;36103;54.176;12.070;2022-12-18T00:06:21;12.77;;;8.20;;
50213;SDS011;36103;54.176;12.070;2022-12-18T00:07:22;14.47;;;9.07;;
50213;SDS011;36103;54.176;12.070;2022-12-18T00:08:23;14.40;;;9.53;;
50213;SDS011;36103;54.176;12.070;2022-12-18T00:09:25;13.90;;;9.20;;
50213;SDS011;36103;54.176;12.070;2022-12-18T00:10:26;12.77;;;8.90;;
50213;SDS011;36103;54.176;12.070;2022-12-18T00:11:28;13.17;;;9.03;;
50213;SDS011;36103;54.176;12.070;2022-12-18T00:12:31;14.47;;;9.07;;
50213;SDS011;36103;54.176;12.070;2022-12-18T00:13:32;15.60;;;8.93;;
50213;SDS011;36103;54.176;12.070;2022-12-18T00:14:33;12.10;;;9.17;;
50213;SDS011;36103;54.176;12.070;2022-12-18T00:15:34;14.30;;;9.67;;
50213;SDS011;36103;54.176;12.070;2022-12-18T00:16:35;13.13;;;9.07;;
50213;SDS011;36103;54.176;12.070;2022-12-18T00:17:37;12.20;;;8.67;;
50213;SDS011;36103;54.176;12.070;2022-12-18T00:18:38;14.67;;;8.53;;
50213;SDS011;36103;54.176;12.070;2022-12-18T00:19:38;13.53;;;8.47;;
50213;SDS011;36103;54.176;12.070;2022-12-18T00:20:41;14.47;;;8.73;;
50213;SDS011;36103;54.176;12.070;2022-12-18T00:21:42;11.43;;;8.30;;
50213;SDS011;36103;54.176;12.070;2022-12-18T00:22:44;10.50;;;8.40;;
50213;SDS011;36103;54.176;12.070;2022-12-18T00:23:44;13.93;;;8.40;;
50213;SDS011;36103;54.176;12.070;2022-12-18T00:24:47;10.87;;;8.47;;
50213;SDS011;36103;54.176;12.070;2022-12-18T00:25:48;11.60;;;8.30;;
50213;SDS011;36103;54.176;12.070;2022-12-18T00:26:49;14.47;;;8.43;;
50213;SDS011;36103;54.176;12.070;2022-12-18T00:27:50;14.50;;;8.40;;
50213;SDS011;36103;54.176;12.070;2022-12-18T00:28:51;13.30;;;8.57;;
50213;SDS011;36103;54.176;12.070;2022-12-18T00:29:52;14.37;;;8.47;;
50213;SDS011;36103;54.176;12.070;2022-12-18T00:30:59;12.13;;;7.90;;
50213;SDS011;36103;54.176;12.070;2022-12-18T00:32:00;11.63;;;8.30;;
50213;SDS011;36103;54.176;12.070;2022-12-18T00:33:02;12.10;;;8.60;;
50213;SDS011;36103;54.176;12.070;2022-12-18T00:34:02;12.50;;;8.00;;
50213;SDS011;36103;54.176;12.070;2022-12-18T00:35:04;12.73;;;8.57;;
50213;SDS011;36103;54.176;12.070;2022-12-18T00:36:07;12.60;;;8.30;;
50213;SDS011;36103;54.176;12.070;2022-12-18T00:37:11;12.67;;;8.43;;
50213;SDS011;36103;54.176;12.070;2022-12-18T00:38:11;11.80;;;7.77;;
50213;SDS011;36103;54.176;12.070;2022-12-18T00:39:13;13.33;;;8.30;;
50213;SDS011;36103;54.176;12.070;2022-12-18T00:40:13;10.47;;;7.90;;
50213;SDS011;36103;54.176;12.070;2022-12-18T00:41:16;10.40;;;7.80;;
50213;SDS011;36103;54.176;12.070;2022-12-18T00:42:38;10.57;;;7.90;;
50213;SDS011;36103;54.176;12.070;2022-12-18T00:43:57;10.47;;;7.10;;
50213;SDS011;36103;54.176;12.070;2022-12-18T00:44:57;12.20;;;7.77;;
50213;SDS011;36103;54.176;12.070;2022-12-18T00:45:59;13.67;;;7.83;;
50213;SDS011;36103;54.176;12.070;2022-12-18T00:46:59;9.53;;;7.37;;
50213;SDS011;36103;54.176;12.070;2022-12-18T00:48:01;11.33;;;8.10;;
50213;SDS011;36103;54.176;12.070;2022-12-18T00:49:02;12.13;;;7.67;;
50213;SDS011;36103;54.176;12.070;2022-12-18T00:50:04;12.50;;;8.37;;
50213;SDS011;36103;54.176;12.070;2022-12-18T00:51:06;10.70;;;7.90;;
50213;SDS011;36103;54.176;12.070;2022-12-18T00:52:08;10.80;;;7.77;;
50213;SDS011;36103;54.176;12.070;2022-12-18T00:53:09;10.20;;;7.67;;
50213;SDS011;36103;54.176;12.070;2022-12-18T00:54:11;11.33;;;7.50;;
50213;SDS011;36103;54.176;12.070;2022-12-18T00:55:12;11.13;;;7.43;;
50213;SDS011;36103;54.176;12.070;2022-12-18T00:56:14;10.63;;;7.53;;
50213;SDS011;36103;54.176;12.070;2022-12-18T00:57:14;11.23;;;8.20;;
50213;SDS011;36103;54.176;12.070;2022-12-18T00:58:17;9.73;;;7.07;;
50213;SDS011;36103;54.176;12.070;2022-12-18T00:59:18;11.93;;;7.70;;
50213;SDS011;36103;54.176;12.070;2022-12-18T01:00:19;8.97;;;7.10;;
50213;SDS011;36103;54.176;12.070;2022-12-18T01:01:20;11.50;;;7.40;;
50213;SDS011;36103;54.176;12.070;2022-12-18T01:02:21;10.47;;;7.37;;
50213;SDS011;36103;54.176;12.070;2022-12-18T01:03:23;8.17;;;6.60;;
50213;SDS011;36103;54.176;12.070;2022-12-18T01:04:25;12.50;;;7.23;;
50213;SDS011;36103;54.176;12.070;2022-12-18T01:05:25;12.50;;;7.77;;
50213;SDS011;36103;54.176;12.070;2022-12-18T01:06:28;10.13;;;7.40;;
50213;SDS011;36103;54.176;12.070;2022-12-18T01:07:30;10.57;;;7.37;;
50213;SDS011;36103;54.176;12.070;2022-12-18T01:08:30;11.03;;;7.43;;
50213;SDS011;36103;54.176;12.070;2022-12-18T01:09:32;10.90;;;7.57;;
50213;SDS011;36103;54.176;12.070;2022-12-18T01:10:32;9.50;;;6.73;;
50213;SDS011;36103;54.176;12.070;2022-12-18T01:11:34;10.97;;;7.43;;
50213;SDS011;36103;54.176;12.070;2022-12-18T01:12:34;11.37;;;7.30;;
50213;SDS011;36103;54.176;12.070;2022-12-18T01:13:36;11.90;;;7.07;;
50213;SDS011;36103;54.176;12.070;2022-12-18T01:14:36;11.00;;;7.57;;
50213;SDS011;36103;54.176;12.070;2022-12-18T01:15:38;9.20;;;6.93;;
50213;SDS011;36103;54.176;12.070;2022-12-18T01:16:38;8.80;;;6.63;;
50213;SDS011;36103;54.176;12.070;2022-12-18T01:17:39;10.97;;;7.07;;
50213;SDS011;36103;54.176;12.070;2022-12-18T01:18:40;9.03;;;6.77;;
50213;SDS011;36103;54.176;12.070;2022-12-18T01:19:42;9.33;;;6.60;;
50213;SDS011;36103;54.176;12.070;2022-12-18T01:20:44;9.60;;;5.70;;
50213;SDS011;36103;54.176;12.070;2022-12-18T01:21:46;9.17;;;6.90;;
50213;SDS011;36103;54.176;12.070;2022-12-18T01:22:47;9.97;;;6.70;;
50213;SDS011;36103;54.176;12.070;2022-12-18T01:23:50;9.23;;;6.37;;
50213;SDS011;36103;54.176;12.070;2022-12-18T01:24:52;10.37;;;7.17;;
50213;SDS011;36103;54.176;12.070;2022-12-18T01:25:55;10.23;;;6.73;;
50213;SDS011;36103;54.176;12.070;2022-12-18T01:26:56;9.13;;;6.77;;
50213;SDS011;36103;54.176;12.070;2022-12-18T01:27:58;9.50;;;6.70;;
50213;SDS011;36103;54.176;12.070;2022-12-18T01:28:58;10.17;;;6.67;;
50213;SDS011;36103;54.176;12.070;2022-12-18T01:30:00;9.67;;;6.43;;
50213;SDS011;36103;54.176;12.070;2022-12-18T01:31:14;14.33;;;7.27;;
50213;SDS011;36103;54.176;12.070;2022-12-18T01:32:18;10.57;;;6.87;;
50213;SDS011;36103;54.176;12.070;2022-12-18T01:33:19;7.03;;;5.50;;
50213;SDS011;36103;54.176;12.070;2022-12-18T01:34:20;7.43;;;5.63;;
50213;SDS011;36103;54.176;12.070;2022-12-18T01:35:21;8.50;;;6.30;;
50213;SDS011;36103;54.176;12.070;2022-12-18T01:36:23;8.73;;;5.93;;
50213;SDS011;36103;54.176;12.070;2022-12-18T01:37:26;10.13;;;6.53;;
50213;SDS011;36103;54.176;12.070;2022-12-18T01:38:27;12.13;;;6.80;;
50213;SDS011;36103;54.176;12.070;2022-12-18T01:39:28;7.30;;;6.13;;
50213;SDS011;36103;54.176;12.070;2022-12-18T01:40:31;9.97;;;6.50;;
50213;SDS011;36103;54.176;12.070;2022-12-18T01:41:32;9.60;;;5.90;;
50213;SDS011;36103;54.176;12.070;2022-12-18T01:42:50;12.23;;;6.47;;
50213;SDS011;36103;54.176;12.070;2022-12-18T01:43:53;9.40;;;6.03;;
50213;SDS011;36103;54.176;12.070;2022-12-18T01:44:55;8.80;;;6.23;;
50213;SDS011;36103;54.176;12.070;2022-12-18T01:46:01;11.17;;;6.70;;
50213;SDS011;36103;54.176;12.070;2022-12-18T01:47:04;8.83;;;6.37;;
50213;SDS011;36103;54.176;12.070;2022-12-18T01:48:05;9.33;;;6.20;;
50213;SDS011;36103;54.176;12.070;2022-12-18T01:49:08;7.37;;;6.00;;
50213;SDS011;36103;54.176;12.070;2022-12-18T01:50:10;7.63;;;5.70;;
50213;SDS011;36103;54.176;12.070;2022-12-18T01:51:13;10.10;;;6.17;;
50213;SDS011;36103;54.176;12.070;2022-12-18T01:52:14;7.20;;;5.83;;
50213;SDS011;36103;54.176;12.070;2022-12-18T01:53:19;7.13;;;5.40;;
50213;SDS011;36103;54.176;12.070;2022-12-18T01:54:22;7.87;;;6.10;;
50213;SDS011;36103;54.176;12.070;2022-12-18T01:55:24;6.57;;;5.60;;
50213;SDS011;36103;54.176;12.070;2022-12-18T01:56:29;6.93;;;5.77;;
50213;SDS011;36103;54.176;12.070;2022-12-18T01:57:29;7.60;;;6.20;;
50213;SDS011;36103;54.176;12.070;2022-12-18T01:58:33;7.63;;;5.87;;
50213;SDS011;36103;54.176;12.070;2022-12-18T01:59:37;7.40;;;5.83;;
50213;SDS011;36103;54.176;12.070;2022-12-18T02:00:40;11.23;;;6.17;;
50213;SDS011;36103;54.176;12.070;2022-12-18T02:01:40;9.70;;;6.07;;
50213;SDS011;36103;54.176;12.070;2022-12-18T02:02:43;7.67;;;5.97;;
50213;SDS011;36103;54.176;12.070;2022-12-18T02:03:46;10.17;;;6.13;;
50213;SDS011;36103;54.176;12.070;2022-12-18T02:04:49;7.70;;;5.43;;
50213;SDS011;36103;54.176;12.070;2022-12-18T02:05:52;9.47;;;5.73;;
50213;SDS011;36103;54.176;12.070;2022-12-18T02:06:59;9.63;;;5.87;;
50213;SDS011;36103;54.176;12.070;2022-12-18T02:08:08;7.87;;;5.37;;
50213;SDS011;36103;54.176;12.070;2022-12-18T02:09:13;7.77;;;5.17;;
50213;SDS011;36103;54.176;12.070;2022-12-18T02:10:18;6.93;;;5.03;;
50213;SDS011;36103;54.176;12.070;2022-12-18T02:11:26;7.43;;;5.70;;
50213;SDS011;36103;54.176;12.070;2022-12-18T02:12:34;7.33;;;5.53;;
50213;SDS011;36103;54.176;12.070;2022-12-18T02:13:43;8.23;;;5.37;;
50213;SDS011;36103;54.176;12.070;2022-12-18T02:14:48;7.03;;;5.00;;
50213;SDS011;36103;54.176;12.070;2022-12-18T02:15:57;9.07;;;5.73;;
50213;SDS011;36103;54.176;12.070;2022-12-18T02:17:01;6.37;;;5.43;;
50213;SDS011;36103;54.176;12.070;2022-12-18T02:18:07;6.30;;;5.37;;
50213;SDS011;36103;54.176;12.070;2022-12-18T02:19:12;5.83;;;5.23;;
50213;SDS011;36103;54.176;12.070;2022-12-18T02:20:18;9.23;;;5.30;;
50213;SDS011;36103;54.176;12.070;2022-12-18T02:21:23;7.10;;;5.43;;
50213;SDS011;36103;54.176;12.070;2022-12-18T02:22:34;6.20;;;5.10;;
50213;SDS011;36103;54.176;12.070;2022-12-18T02:23:42;6.43;;;5.20;;
50213;SDS011;36103;54.176;12.070;2022-12-18T02:24:52;7.13;;;5.33;;
50213;SDS011;36103;54.176;12.070;2022-12-18T02:26:03;6.73;;;5.90;;
50213;SDS011;36103;54.176;12.070;2022-12-18T02:27:09;6.40;;;5.07;;
50213;SDS011;36103;54.176;12.070;2022-12-18T02:28:11;6.63;;;4.97;;
50213;SDS011;36103;54.176;12.070;2022-12-18T02:29:15;7.77;;;5.57;;
50213;SDS011;36103;54.176;12.070;2022-12-18T02:30:18;7.03;;;4.87;;
50213;SDS011;36103;54.176;12.070;2022-12-18T02:31:22;6.73;;;5.07;;
50213;SDS011;36103;54.176;12.070;2022-12-18T02:32:27;7.23;;;5.23;;
50213;SDS011;36103;54.176;12.070;2022-12-18T02:33:29;6.23;;;5.37;;
50213;SDS011;36103;54.176;12.070;2022-12-18T02:34:31;5.00;;;4.40;;
50213;SDS011;36103;54.176;12.070;2022-12-18T02:35:36;7.27;;;5.40;;
50213;SDS011;36103;54.176;12.070;2022-12-18T02:36:38;5.87;;;5.20;;
50213;SDS011;36103;54.176;12.070;2022-12-18T02:37:43;7.23;;;4.80;;
50213;SDS011;36103;54.176;12.070;2022-12-18T02:38:45;7.30;;;5.37;;
50213;SDS011;36103;54.176;12.070;2022-12-18T02:39:50;6.13;;;5.27;;
50213;SDS011;36103;54.176;12.070;2022-12-18T02:40:54;7.37;;;4.70;;
50213;SDS011;36103;54.176;12.070;2022-12-18T02:41:57;7.27;;;5.10;;
50213;SDS011;36103;54.176;12.070;2022-12-18T02:43:02;7.13;;;5.60;;
50213;SDS011;36103;54.176;12.070;2022-12-18T02:44:06;8.20;;;5.20;;
50213;SDS011;36103;54.176;12.070;2022-12-18T02:45:08;6.80;;;5.30;;
50213;SDS011;36103;54.176;12.070;2022-12-18T02:46:23;6.30;;;4.87;;
50213;SDS011;36103;54.176;12.070;2022-12-18T02:47:28;6.23;;;4.73;;
50213;SDS011;36103;54.176;12.070;2022-12-18T02:48:32;6.63;;;5.13;;
50213;SDS011;36103;54.176;12.070;2022-12-18T02:49:34;6.13;;;4.50;;
50213;SDS011;36103;54.176;12.070;2022-12-18T02:50:44;6.63;;;5.13;;
50213;SDS011;36103;54.176;12.070;2022-12-18T02:51:48;7.67;;;4.70;;
50213;SDS011;36103;54.176;12.070;2022-12-18T02:52:55;7.27;;;5.00;;
50213;SDS011;36103;54.176;12.070;2022-12-18T02:53:58;6.13;;;4.50;;
50213;SDS011;36103;54.176;12.070;2022-12-18T02:56:09;5.83;;;4.67;;
50213;SDS011;36103;54.176;12.070;2022-12-18T02:57:16;6.57;;;4.70;;
50213;SDS011;36103;54.176;12.070;2022-12-18T02:58:24;5.00;;;4.50;;
50213;SDS011;36103;54.176;12.070;2022-12-18T02:59:34;5.83;;;4.83;;
50213;SDS011;36103;54.176;12.070;2022-12-18T03:00:41;6.17;;;4.40;;
50213;SDS011;36103;54.176;12.070;2022-12-18T03:01:47;5.77;;;4.33;;
50213;SDS011;36103;54.176;12.070;2022-12-18T03:02:51;6.83;;;4.93;;
50213;SDS011;36103;54.176;12.070;2022-12-18T03:03:57;5.10;;;4.33;;
50213;SDS011;36103;54.176;12.070;2022-12-18T03:05:01;7.63;;;4.33;;
50213;SDS011;36103;54.176;12.070;2022-12-18T03:06:07;5.87;;;4.63;;
50213;SDS011;36103;54.176;12.070;2022-12-18T03:07:11;6.20;;;4.50;;
50213;SDS011;36103;54.176;12.070;2022-12-18T03:08:18;5.63;;;4.20;;
50213;SDS011;36103;54.176;12.070;2022-12-18T03:09:21;7.20;;;4.80;;
50213;SDS011;36103;54.176;12.070;2022-12-18T03:10:27;4.83;;;4.13;;
50213;SDS011;36103;54.176;12.070;2022-12-18T03:11:31;7.53;;;4.60;;
50213;SDS011;36103;54.176;12.070;2022-12-18T03:12:54;5.87;;;4.87;;
50213;SDS011;36103;54.176;12.070;2022-12-18T03:13:59;5.53;;;4.50;;
50213;SDS011;36103;54.176;12.070;2022-12-18T03:15:00;5.23;;;4.40;;
50213;SDS011;36103;54.176;12.070;2022-12-18T03:16:06;7.40;;;4.70;;
50213;SDS011;36103;54.176;12.070;2022-12-18T03:17:13;6.57;;;4.53;;
50213;SDS011;36103;54.176;12.070;2022-12-18T03:18:17;4.63;;;3.87;;
50213;SDS011;36103;54.176;12.070;2022-12-18T03:19:20;5.40;;;4.40;;
50213;SDS011;36103;54.176;12.070;2022-12-18T03:20:25;6.23;;;5.00;;
50213;SDS011;36103;54.176;12.070;2022-12-18T03:21:28;4.73;;;3.60;;
50213;SDS011;36103;54.176;12.070;2022-12-18T03:22:32;5.07;;;4.53;;
50213;SDS011;36103;54.176;12.070;2022-12-18T03:23:34;5.13;;;4.63;;
50213;SDS011;36103;54.176;12.070;2022-12-18T03:24:37;4.93;;;4.23;;
50213;SDS011;36103;54.176;12.070;2022-12-18T03:25:41;5.27;;;4.77;;
50213;SDS011;36103;54.176;12.070;2022-12-18T03:26:44;5.40;;;4.47;;
50213;SDS011;36103;54.176;12.070;2022-12-18T03:27:49;5.87;;;4.30;;
50213;SDS011;36103;54.176;12.070;2022-12-18T03:28:56;4.40;;;3.90;;
50213;SDS011;36103;54.176;12.070;2022-12-18T03:30:01;5.97;;;4.83;;
50213;SDS011;36103;54.176;12.070;2022-12-18T03:31:09;6.57;;;5.13;;
50213;SDS011;36103;54.176;12.070;2022-12-18T03:32:10;5.10;;;4.00;;
50213;SDS011;36103;54.176;12.070;2022-12-18T03:33:16;5.33;;;4.57;;
50213;SDS011;36103;54.176;12.070;2022-12-18T03:34:23;5.10;;;4.60;;
50213;SDS011;36103;54.176;12.070;2022-12-18T03:35:28;4.83;;;4.20;;
50213;SDS011;36103;54.176;12.070;2022-12-18T03:36:31;5.20;;;4.20;;
50213;SDS011;36103;54.176;12.070;2022-12-18T03:37:33;5.70;;;4.20;;
50213;SDS011;36103;54.176;12.070;2022-12-18T03:38:33;5.87;;;4.47;;
50213;SDS011;36103;54.176;12.070;2022-12-18T03:39:36;5.73;;;4.33;;
50213;SDS011;36103;54.176;12.070;2022-12-18T03:40:41;4.60;;;4.10;;
50213;SDS011;36103;54.176;12.070;2022-12-18T03:41:47;4.67;;;4.17;;
50213;SDS011;36103;54.176;12.070;2022-12-18T03:43:10;6.83;;;4.23;;
50213;SDS011;36103;54.176;12.070;2022-12-18T03:44:19;6.07;;;4.40;;
50213;SDS011;36103;54.176;12.070;2022-12-18T03:45:22;5.27;;;4.47;;
50213;SDS011;36103;54.176;12.070;2022-12-18T03:46:26;4.67;;;3.97;;
50213;SDS011;36103;54.176;12.070;2022-12-18T03:47:31;7.30;;;4.30;;
50213;SDS011;36103;54.176;12.070;2022-12-18T03:48:37;6.83;;;4.83;;
50213;SDS011;36103;54.176;12.070;2022-12-18T03:49:46;5.30;;;4.80;;
50213;SDS011;36103;54.176;12.070;2022-12-18T03:50:51;5.53;;;4.03;;
50213;SDS011;36103;54.176;12.070;2022-12-18T03:51:59;4.20;;;3.80;;
50213;SDS011;36103;54.176;12.070;2022-12-18T03:53:05;7.80;;;3.93;;
50213;SDS011;36103;54.176;12.070;2022-12-18T03:54:12;5.00;;;4.20;;
50213;SDS011;36103;54.176;12.070;2022-12-18T03:55:22;4.13;;;3.53;;
50213;SDS011;36103;54.176;12.070;2022-12-18T03:56:29;4.30;;;3.90;;
50213;SDS011;36103;54.176;12.070;2022-12-18T03:57:33;5.37;;;4.27;;
50213;SDS011;36103;54.176;12.070;2022-12-18T03:58:34;5.43;;;4.13;;
50213;SDS011;36103;54.176;12.070;2022-12-18T03:59:51;5.57;;;4.13;;
50213;SDS011;36103;54.176;12.070;2022-12-18T04:01:00;5.33;;;4.10;;
50213;SDS011;36103;54.176;12.070;2022-12-18T04:02:02;5.83;;;4.10;;
50213;SDS011;36103;54.176;12.070;2022-12-18T04:03:05;4.20;;;3.90;;
50213;SDS011;36103;54.176;12.070;2022-12-18T04:04:15;5.43;;;4.27;;
50213;SDS011;36103;54.176;12.070;2022-12-18T04:05:18;5.10;;;4.00;;
50213;SDS011;36103;54.176;12.070;2022-12-18T04:06:19;5.73;;;4.20;;
50213;SDS011;36103;54.176;12.070;2022-12-18T04:07:21;4.93;;;4.33;;
50213;SDS011;36103;54.176;12.070;2022-12-18T04:08:22;5.17;;;3.93;;
50213;SDS011;36103;54.176;12.070;2022-12-18T04:09:34;6.10;;;4.37;;
50213;SDS011;36103;54.176;12.070;2022-12-18T04:10:36;4.17;;;3.53;;
50213;SDS011;36103;54.176;12.070;2022-12-18T04:11:37;4.37;;;3.43;;
50213;SDS011;36103;54.176;12.070;2022-12-18T04:12:39;5.73;;;4.17;;
50213;SDS011;36103;54.176;12.070;2022-12-18T04:13:44;4.50;;;3.87;;
50213;SDS011;36103;54.176;12.070;2022-12-18T04:14:53;4.97;;;3.80;;
50213;SDS011;36103;54.176;12.070;2022-12-18T04:15:55;6.10;;;3.57;;
50213;SDS011;36103;54.176;12.070;2022-12-18T04:16:57;4.80;;;3.57;;
50213;SDS011;36103;54.176;12.070;2022-12-18T04:18:04;5.47;;;4.10;;
50213;SDS011;36103;54.176;12.070;2022-12-18T04:19:11;4.90;;;3.47;;
50213;SDS011;36103;54.176;12.070;2022-12-18T04:20:15;5.03;;;3.83;;
50213;SDS011;36103;54.176;12.070;2022-12-18T04:21:18;4.87;;;3.70;;
50213;SDS011;36103;54.176;12.070;2022-12-18T04:22:20;4.20;;;3.80;;
50213;SDS011;36103;54.176;12.070;2022-12-18T04:23:25;4.83;;;3.50;;
50213;SDS011;36103;54.176;12.070;2022-12-18T04:24:30;4.50;;;3.90;;
50213;SDS011;36103;54.176;12.070;2022-12-18T04:25:46;4.57;;;3.40;;
50213;SDS011;36103;54.176;12.070;2022-12-18T04:26:53;4.27;;;3.80;;
50213;SDS011;36103;54.176;12.070;2022-12-18T04:27:59;4.23;;;3.63;;
50213;SDS011;36103;54.176;12.070;2022-12-18T04:29:01;3.90;;;3.50;;
50213;SDS011;36103;54.176;12.070;2022-12-18T04:30:04;4.13;;;3.53;;
50213;SDS011;36103;54.176;12.070;2022-12-18T04:31:07;4.00;;;3.33;;
50213;SDS011;36103;54.176;12.070;2022-12-18T04:32:08;4.73;;;4.00;;
50213;SDS011;36103;54.176;12.070;2022-12-18T04:33:11;4.33;;;3.73;;
50213;SDS011;36103;54.176;12.070;2022-12-18T04:34:12;5.60;;;3.87;;
50213;SDS011;36103;54.176;12.070;2022-12-18T04:35:21;4.13;;;3.60;;
50213;SDS011;36103;54.176;12.070;2022-12-18T04:36:21;4.33;;;3.70;;
50213;SDS011;36103;54.176;12.070;2022-12-18T04:37:27;4.80;;;3.87;;
50213;SDS011;36103;54.176;12.070;2022-12-18T04:38:28;4.40;;;3.33;;
50213;SDS011;36103;54.176;12.070;2022-12-18T04:39:37;3.50;;;3.20;;
50213;SDS011;36103;54.176;12.070;2022-12-18T04:40:43;4.50;;;3.77;;
50213;SDS011;36103;54.176;12.070;2022-12-18T04:41:53;4.03;;;3.27;;
50213;SDS011;36103;54.176;12.070;2022-12-18T04:42:53;3.93;;;3.53;;
50213;SDS011;36103;54.176;12.070;2022-12-18T04:43:55;4.33;;;3.53;;
50213;SDS011;36103;54.176;12.070;2022-12-18T04:44:55;4.43;;;3.57;;
50213;SDS011;36103;54.176;12.070;2022-12-18T04:46:02;4.50;;;3.47;;
50213;SDS011;36103;54.176;12.070;2022-12-18T04:47:03;3.93;;;3.00;;
50213;SDS011;36103;54.176;12.070;2022-12-18T04:48:05;4.17;;;3.57;;
50213;SDS011;36103;54.176;12.070;2022-12-18T04:49:05;3.83;;;3.40;;
50213;SDS011;36103;54.176;12.070;2022-12-18T04:50:07;4.07;;;3.60;;
50213;SDS011;36103;54.176;12.070;2022-12-18T04:51:07;5.20;;;3.97;;
50213;SDS011;36103;54.176;12.070;2022-12-18T04:52:09;4.70;;;3.63;;
50213;SDS011;36103;54.176;12.070;2022-12-18T04:53:09;3.60;;;3.30;;
50213;SDS011;36103;54.176;12.070;2022-12-18T04:54:11;4.00;;;2.97;;
50213;SDS011;36103;54.176;12.070;2022-12-18T04:55:11;3.87;;;3.27;;
50213;SDS011;36103;54.176;12.070;2022-12-18T04:56:14;4.70;;;3.77;;
50213;SDS011;36103;54.176;12.070;2022-12-18T04:57:16;3.97;;;3.57;;
50213;SDS011;36103;54.176;12.070;2022-12-18T04:58:18;3.77;;;3.40;;
50213;SDS011;36103;54.176;12.070;2022-12-18T04:59:19;5.57;;;3.60;;
50213;SDS011;36103;54.176;12.070;2022-12-18T05:00:20;3.67;;;3.33;;
50213;SDS011;36103;54.176;12.070;2022-12-18T05:01:23;4.50;;;3.60;;
50213;SDS011;36103;54.176;12.070;2022-12-18T05:02:23;4.97;;;3.40;;
50213;SDS011;36103;54.176;12.070;2022-12-18T05:03:25;4.03;;;3.57;;
50213;SDS011;36103;54.176;12.070;2022-12-18T05:04:25;3.60;;;3.23;;
50213;SDS011;36103;54.176;12.070;2022-12-18T05:05:27;4.10;;;3.23;;
50213;SDS011;36103;54.176;12.070;2022-12-18T05:06:27;5.60;;;3.60;;
50213;SDS011;36103;54.176;12.070;2022-12-18T05:07:29;3.93;;;3.30;;
50213;SDS011;36103;54.176;12.070;2022-12-18T05:08:29;4.87;;;3.77;;
50213;SDS011;36103;54.176;12.070;2022-12-18T05:09:31;4.70;;;3.50;;
50213;SDS011;36103;54.176;12.070;2022-12-18T05:10:31;3.80;;;3.00;;
50213;SDS011;36103;54.176;12.070;2022-12-18T05:11:36;4.50;;;3.50;;
50213;SDS011;36103;54.176;12.070;2022-12-18T05:12:36;3.77;;;3.37;;
50213;SDS011;36103;54.176;12.070;2022-12-18T05:13:58;4.03;;;3.23;;
50213;SDS011;36103;54.176;12.070;2022-12-18T05:14:58;3.60;;;3.30;;
50213;SDS011;36103;54.176;12.070;2022-12-18T05:16:00;3.40;;;3.10;;
50213;SDS011;36103;54.176;12.070;2022-12-18T05:17:02;4.00;;;3.03;;
50213;SDS011;36103;54.176;12.070;2022-12-18T05:18:03;4.13;;;3.60;;
50213;SDS011;36103;54.176;12.070;2022-12-18T05:19:04;3.97;;;3.57;;
50213;SDS011;36103;54.176;12.070;2022-12-18T05:20:05;3.70;;;3.40;;
50213;SDS011;36103;54.176;12.070;2022-12-18T05:21:06;3.23;;;2.90;;
50213;SDS011;36103;54.176;12.070;2022-12-18T05:22:08;3.90;;;3.40;;
50213;SDS011;36103;54.176;12.070;2022-12-18T05:23:09;3.90;;;3.50;;
50213;SDS011;36103;54.176;12.070;2022-12-18T05:24:10;4.17;;;3.77;;
50213;SDS011;36103;54.176;12.070;2022-12-18T05:25:11;4.37;;;2.77;;
50213;SDS011;36103;54.176;12.070;2022-12-18T05:26:14;3.73;;;3.30;;
50213;SDS011;36103;54.176;12.070;2022-12-18T05:27:16;4.57;;;3.67;;
50213;SDS011;36103;54.176;12.070;2022-12-18T05:28:19;3.30;;;2.87;;
50213;SDS011;36103;54.176;12.070;2022-12-18T05:29:20;3.57;;;2.90;;
50213;SDS011;36103;54.176;12.070;2022-12-18T05:30:21;3.97;;;3.57;;
50213;SDS011;36103;54.176;12.070;2022-12-18T05:31:22;4.13;;;3.73;;
50213;SDS011;36103;54.176;12.070;2022-12-18T05:32:25;4.03;;;3.43;;
50213;SDS011;36103;54.176;12.070;2022-12-18T05:33:26;3.60;;;3.30;;
50213;SDS011;36103;54.176;12.070;2022-12-18T05:34:29;3.60;;;3.27;;
50213;SDS011;36103;54.176;12.070;2022-12-18T05:35:30;4.23;;;3.30;;
50213;SDS011;36103;54.176;12.070;2022-12-18T05:36:31;3.40;;;3.10;;
50213;SDS011;36103;54.176;12.070;2022-12-18T05:37:31;3.40;;;3.00;;
50213;SDS011;36103;54.176;12.070;2022-12-18T05:38:33;3.27;;;2.97;;
50213;SDS011;36103;54.176;12.070;2022-12-18T05:39:34;4.87;;;3.30;;
50213;SDS011;36103;54.176;12.070;2022-12-18T05:40:36;3.60;;;3.10;;
50213;SDS011;36103;54.176;12.070;2022-12-18T05:41:36;4.17;;;3.57;;
50213;SDS011;36103;54.176;12.070;2022-12-18T05:42:38;3.80;;;3.40;;
50213;SDS011;36103;54.176;12.070;2022-12-18T05:43:39;4.00;;;3.00;;
50213;SDS011;36103;54.176;12.070;2022-12-18T05:44:40;3.40;;;3.10;;
50213;SDS011;36103;54.176;12.070;2022-12-18T05:45:41;3.70;;;3.30;;
50213;SDS011;36103;54.176;12.070;2022-12-18T05:46:43;3.90;;;3.10;;
50213;SDS011;36103;54.176;12.070;2022-12-18T05:47:44;4.53;;;3.40;;
50213;SDS011;36103;54.176;12.070;2022-12-18T05:48:46;3.40;;;3.10;;
50213;SDS011;36103;54.176;12.070;2022-12-18T05:49:47;3.60;;;2.90;;
50213;SDS011;36103;54.176;12.070;2022-12-18T05:50:48;3.30;;;3.00;;
50213;SDS011;36103;54.176;12.070;2022-12-18T05:51:49;3.40;;;3.07;;
50213;SDS011;36103;54.176;12.070;2022-12-18T05:52:51;3.47;;;3.17;;
50213;SDS011;36103;54.176;12.070;2022-12-18T05:53:51;3.27;;;2.97;;
50213;SDS011;36103;54.176;12.070;2022-12-18T05:54:53;3.57;;;2.97;;
50213;SDS011;36103;54.176;12.070;2022-12-18T05:55:53;4.83;;;3.10;;
50213;SDS011;36103;54.176;12.070;2022-12-18T05:56:54;3.67;;;3.13;;
50213;SDS011;36103;54.176;12.070;2022-12-18T05:57:55;3.33;;;3.03;;
50213;SDS011;36103;54.176;12.070;2022-12-18T05:58:57;4.27;;;3.30;;
50213;SDS011;36103;54.176;12.070;2022-12-18T05:59:57;4.17;;;3.27;;
50213;SDS011;36103;54.176;12.070;2022-12-18T06:01:05;3.37;;;3.07;;
50213;SDS011;36103;54.176;12.070;2022-12-18T06:02:06;4.10;;;3.30;;
50213;SDS011;36103;54.176;12.070;2022-12-18T06:03:10;3.70;;;3.07;;
50213;SDS011;36103;54.176;12.070;2022-12-18T06:04:11;3.17;;;2.87;;
50213;SDS011;36103;54.176;12.070;2022-12-18T06:05:12;3.50;;;2.97;;
50213;SDS011;36103;54.176;12.070;2022-12-18T06:06:13;2.90;;;2.60;;
50213;SDS011;36103;54.176;12.070;2022-12-18T06:07:15;3.93;;;3.47;;
50213;SDS011;36103;54.176;12.070;2022-12-18T06:08:16;3.23;;;2.90;;
50213;SDS011;36103;54.176;12.070;2022-12-18T06:09:17;3.27;;;2.97;;
50213;SDS011;36103;54.176;12.070;2022-12-18T06:10:17;3.57;;;2.90;;
50213;SDS011;36103;54.176;12.070;2022-12-18T06:11:19;3.77;;;2.80;;
50213;SDS011;36103;54.176;12.070;2022-12-18T06:12:21;3.73;;;3.00;;
50213;SDS011;36103;54.176;12.070;2022-12-18T06:13:22;2.83;;;2.53;;
50213;SDS011;36103;54.176;12.070;2022-12-18T06:14:23;3.90;;;2.80;;
50213;SDS011;36103;54.176;12.070;2022-12-18T06:15:24;3.17;;;2.77;;
50213;SDS011;36103;54.176;12.070;2022-12-18T06:16:24;3.10;;;2.80;;